sensor_id;sensor_type;location;lat;lon;timestamp;P1;durP1;ratioP1;P2;durP2;ratioP2
60306;SDS011;46155;52.364;6.580;2023-01-05T04:01:58;33.77;;;13.20;;
60306;SDS011;46155;52.364;6.580;2023-01-05T04:04:24;31.60;;;12.97;;
60306;SDS011;46155;52.364;6.580;2023-01-05T04:06:49;22.73;;;12.30;;
60306;SDS011;46155;52.364;6.580;2023-01-05T04:09:14;29.60;;;14.10;;
60306;SDS011;46155;52.364;6.580;2023-01-05T04:11:40;34.57;;;13.90;;
60306;SDS011;46155;52.364;6.580;2023-01-05T04:14:05;33.53;;;13.70;;
60306;SDS011;46155;52.364;6.580;2023-01-05T04:16:30;30.77;;;14.73;;
60306;SDS011;46155;52.364;6.580;2023-01-05T04:18:56;28.03;;;14.93;;
60306;SDS011;46155;52.364;6.580;2023-01-05T04:21:21;32.97;;;14.40;;
60306;SDS011;46155;52.364;6.580;2023-01-05T04:23:46;30.10;;;14.93;;
60306;SDS011;46155;52.364;6.580;2023-01-05T04:26:11;26.30;;;15.03;;
60306;SDS011;46155;52.364;6.580;2023-01-05T04:28:37;29.20;;;16.10;;
60306;SDS011;46155;52.364;6.580;2023-01-05T04:31:02;34.17;;;16.57;;
60306;SDS011;46155;52.364;6.580;2023-01-05T04:33:27;34.20;;;17.03;;
60306;SDS011;46155;52.364;6.580;2023-01-05T04:35:53;35.20;;;18.30;;
60306;SDS011;46155;52.364;6.580;2023-01-05T04:38:18;19.13;;;14.70;;
60306;SDS011;46155;52.364;6.580;2023-01-05T04:40:50;34.57;;;14.60;;
60306;SDS011;46155;52.364;6.580;2023-01-05T04:43:16;34.40;;;16.47;;
60306;SDS011;46155;52.364;6.580;2023-01-05T04:45:44;21.73;;;15.13;;
60306;SDS011;46155;52.364;6.580;2023-01-05T04:48:11;26.37;;;17.50;;
60306;SDS011;46155;52.364;6.580;2023-01-05T04:50:36;23.80;;;16.10;;
60306;SDS011;46155;52.364;6.580;2023-01-05T04:53:01;29.90;;;15.70;;
60306;SDS011;46155;52.364;6.580;2023-01-05T04:55:27;26.23;;;14.13;;
60306;SDS011;46155;52.364;6.580;2023-01-05T04:57:52;27.70;;;14.03;;
60306;SDS011;46155;52.364;6.580;2023-01-05T05:00:17;35.83;;;14.23;;
60306;SDS011;46155;52.364;6.580;2023-01-05T05:02:43;20.70;;;13.50;;
60306;SDS011;46155;52.364;6.580;2023-01-05T05:05:08;30.40;;;11.63;;
60306;SDS011;46155;52.364;6.580;2023-01-05T05:07:34;33.40;;;13.10;;
60306;SDS011;46155;52.364;6.580;2023-01-05T05:09:59;22.10;;;13.90;;
60306;SDS011;46155;52.364;6.580;2023-01-05T05:12:24;40.27;;;14.43;;
60306;SDS011;46155;52.364;6.580;2023-01-05T05:14:49;24.00;;;13.83;;
60306;SDS011;46155;52.364;6.580;2023-01-05T05:17:15;32.70;;;14.53;;
60306;SDS011;46155;52.364;6.580;2023-01-05T05:19:41;19.80;;;12.27;;
60306;SDS011;46155;52.364;6.580;2023-01-05T05:22:06;23.87;;;13.37;;
60306;SDS011;46155;52.364;6.580;2023-01-05T05:24:32;38.37;;;15.10;;
60306;SDS011;46155;52.364;6.580;2023-01-05T05:26:57;20.97;;;13.80;;
60306;SDS011;46155;52.364;6.580;2023-01-05T05:29:23;23.50;;;14.60;;
60306;SDS011;46155;52.364;6.580;2023-01-05T05:31:48;22.07;;;13.50;;
60306;SDS011;46155;52.364;6.580;2023-01-05T05:34:14;19.87;;;12.93;;
60306;SDS011;46155;52.364;6.580;2023-01-05T05:36:41;17.97;;;14.00;;
60306;SDS011;46155;52.364;6.580;2023-01-05T05:39:06;33.10;;;16.03;;
60306;SDS011;46155;52.364;6.580;2023-01-05T05:41:32;19.30;;;13.40;;
60306;SDS011;46155;52.364;6.580;2023-01-05T05:43:57;29.77;;;14.63;;
60306;SDS011;46155;52.364;6.580;2023-01-05T05:46:27;24.63;;;15.83;;
60306;SDS011;46155;52.364;6.580;2023-01-05T05:48:53;20.23;;;17.00;;
60306;SDS011;46155;52.364;6.580;2023-01-05T05:51:22;31.47;;;20.43;;
60306;SDS011;46155;52.364;6.580;2023-01-05T05:53:48;27.53;;;19.87;;
60306;SDS011;46155;52.364;6.580;2023-01-05T05:56:14;21.63;;;19.30;;
60306;SDS011;46155;52.364;6.580;2023-01-05T05:58:40;22.80;;;19.23;;
60306;SDS011;46155;52.364;6.580;2023-01-05T06:01:05;27.13;;;19.50;;
60306;SDS011;46155;52.364;6.580;2023-01-05T06:03:30;30.93;;;19.50;;
60306;SDS011;46155;52.364;6.580;2023-01-05T06:05:56;38.20;;;19.93;;
60306;SDS011;46155;52.364;6.580;2023-01-05T06:08:21;24.00;;;17.83;;
60306;SDS011;46155;52.364;6.580;2023-01-05T06:10:48;19.70;;;17.67;;
60306;SDS011;46155;52.364;6.580;2023-01-05T06:13:14;32.63;;;18.03;;
60306;SDS011;46155;52.364;6.580;2023-01-05T06:15:40;33.90;;;19.37;;
60306;SDS011;46155;52.364;6.580;2023-01-05T06:18:06;25.13;;;20.07;;
60306;SDS011;46155;52.364;6.580;2023-01-05T06:20:31;25.80;;;19.57;;
60306;SDS011;46155;52.364;6.580;2023-01-05T06:22:57;36.00;;;17.40;;
60306;SDS011;46155;52.364;6.580;2023-01-05T06:25:22;26.77;;;18.37;;
60306;SDS011;46155;52.364;6.580;2023-01-05T06:27:47;34.00;;;19.73;;
60306;SDS011;46155;52.364;6.580;2023-01-05T06:30:13;32.17;;;18.83;;
60306;SDS011;46155;52.364;6.580;2023-01-05T06:32:38;32.00;;;19.67;;
60306;SDS011;46155;52.364;6.580;2023-01-05T06:35:03;30.97;;;18.90;;
60306;SDS011;46155;52.364;6.580;2023-01-05T06:37:29;26.73;;;20.07;;
60306;SDS011;46155;52.364;6.580;2023-01-05T06:39:54;36.37;;;20.03;;
60306;SDS011;46155;52.364;6.580;2023-01-05T06:42:20;20.77;;;17.13;;
60306;SDS011;46155;52.364;6.580;2023-01-05T06:44:45;37.70;;;18.73;;
60306;SDS011;46155;52.364;6.580;2023-01-05T06:47:11;23.50;;;18.83;;
60306;SDS011;46155;52.364;6.580;2023-01-05T06:49:36;36.63;;;17.40;;
60306;SDS011;46155;52.364;6.580;2023-01-05T06:52:01;25.30;;;17.90;;
60306;SDS011;46155;52.364;6.580;2023-01-05T06:54:26;27.03;;;18.23;;
60306;SDS011;46155;52.364;6.580;2023-01-05T06:56:52;38.33;;;17.93;;
60306;SDS011;46155;52.364;6.580;2023-01-05T06:59:17;23.07;;;16.80;;
60306;SDS011;46155;52.364;6.580;2023-01-05T07:01:42;29.57;;;16.20;;
60306;SDS011;46155;52.364;6.580;2023-01-05T07:04:08;21.13;;;16.50;;
60306;SDS011;46155;52.364;6.580;2023-01-05T07:06:33;32.87;;;15.07;;
60306;SDS011;46155;52.364;6.580;2023-01-05T07:09:00;21.67;;;15.83;;
60306;SDS011;46155;52.364;6.580;2023-01-05T07:11:25;35.13;;;18.53;;
60306;SDS011;46155;52.364;6.580;2023-01-05T07:13:51;23.30;;;15.00;;
60306;SDS011;46155;52.364;6.580;2023-01-05T07:16:16;28.23;;;16.53;;
60306;SDS011;46155;52.364;6.580;2023-01-05T07:18:42;32.93;;;16.50;;
60306;SDS011;46155;52.364;6.580;2023-01-05T07:21:08;30.13;;;16.93;;
60306;SDS011;46155;52.364;6.580;2023-01-05T07:23:34;18.13;;;16.37;;
60306;SDS011;46155;52.364;6.580;2023-01-05T07:26:02;18.57;;;16.67;;
60306;SDS011;46155;52.364;6.580;2023-01-05T07:28:28;21.13;;;17.90;;
60306;SDS011;46155;52.364;6.580;2023-01-05T07:30:53;29.97;;;16.07;;
60306;SDS011;46155;52.364;6.580;2023-01-05T07:33:18;24.13;;;14.70;;
60306;SDS011;46155;52.364;6.580;2023-01-05T07:35:44;18.27;;;14.50;;
60306;SDS011;46155;52.364;6.580;2023-01-05T07:38:09;22.77;;;14.13;;
60306;SDS011;46155;52.364;6.580;2023-01-05T07:40:34;27.37;;;15.57;;
60306;SDS011;46155;52.364;6.580;2023-01-05T07:43:00;21.47;;;13.23;;
60306;SDS011;46155;52.364;6.580;2023-01-05T07:45:25;25.77;;;13.77;;
60306;SDS011;46155;52.364;6.580;2023-01-05T07:47:50;24.50;;;14.83;;
60306;SDS011;46155;52.364;6.580;2023-01-05T07:50:16;23.27;;;13.37;;
60306;SDS011;46155;52.364;6.580;2023-01-05T07:52:41;28.20;;;15.10;;
60306;SDS011;46155;52.364;6.580;2023-01-05T07:55:06;18.80;;;14.03;;
60306;SDS011;46155;52.364;6.580;2023-01-05T07:57:32;23.30;;;16.43;;
60306;SDS011;46155;52.364;6.580;2023-01-05T07:59:57;25.00;;;14.80;;
60306;SDS011;46155;52.364;6.580;2023-01-05T08:02:23;23.10;;;13.23;;
60306;SDS011;46155;52.364;6.580;2023-01-05T08:04:48;17.63;;;12.33;;
60306;SDS011;46155;52.364;6.580;2023-01-05T08:07:13;26.03;;;13.40;;
60306;SDS011;46155;52.364;6.580;2023-01-05T08:09:39;25.83;;;13.13;;
60306;SDS011;46155;52.364;6.580;2023-01-05T08:12:24;23.23;;;13.23;;
60306;SDS011;46155;52.364;6.580;2023-01-05T08:14:49;23.37;;;12.33;;
60306;SDS011;46155;52.364;6.580;2023-01-05T08:17:14;17.97;;;12.13;;
60306;SDS011;46155;52.364;6.580;2023-01-05T08:19:40;26.47;;;12.43;;
60306;SDS011;46155;52.364;6.580;2023-01-05T08:22:05;23.03;;;10.57;;
60306;SDS011;46155;52.364;6.580;2023-01-05T08:24:30;21.67;;;11.33;;
60306;SDS011;46155;52.364;6.580;2023-01-05T08:26:56;27.23;;;10.53;;
60306;SDS011;46155;52.364;6.580;2023-01-05T08:29:21;20.57;;;10.07;;
60306;SDS011;46155;52.364;6.580;2023-01-05T08:31:46;34.23;;;10.83;;
60306;SDS011;46155;52.364;6.580;2023-01-05T08:34:12;30.33;;;10.60;;
60306;SDS011;46155;52.364;6.580;2023-01-05T08:36:37;22.27;;;9.50;;
60306;SDS011;46155;52.364;6.580;2023-01-05T08:39:04;18.97;;;11.00;;
60306;SDS011;46155;52.364;6.580;2023-01-05T08:41:30;24.63;;;11.07;;
60306;SDS011;46155;52.364;6.580;2023-01-05T08:44:00;25.43;;;10.40;;
60306;SDS011;46155;52.364;6.580;2023-01-05T08:46:28;22.70;;;10.20;;
60306;SDS011;46155;52.364;6.580;2023-01-05T08:48:57;25.83;;;11.20;;
60306;SDS011;46155;52.364;6.580;2023-01-05T08:51:24;14.73;;;10.73;;
60306;SDS011;46155;52.364;6.580;2023-01-05T08:53:49;20.23;;;10.03;;
60306;SDS011;46155;52.364;6.580;2023-01-05T08:56:15;25.63;;;11.40;;
60306;SDS011;46155;52.364;6.580;2023-01-05T08:58:40;18.30;;;10.37;;
60306;SDS011;46155;52.364;6.580;2023-01-05T09:01:10;23.70;;;11.37;;
60306;SDS011;46155;52.364;6.580;2023-01-05T09:03:37;17.63;;;9.33;;
60306;SDS011;46155;52.364;6.580;2023-01-05T09:06:03;20.40;;;11.53;;
60306;SDS011;46155;52.364;6.580;2023-01-05T09:08:30;25.00;;;11.90;;
60306;SDS011;46155;52.364;6.580;2023-01-05T09:13:39;29.17;;;11.63;;
60306;SDS011;46155;52.364;6.580;2023-01-05T09:16:09;19.40;;;10.80;;
60306;SDS011;46155;52.364;6.580;2023-01-05T09:18:37;25.43;;;12.40;;
60306;SDS011;46155;52.364;6.580;2023-01-05T09:21:03;24.50;;;11.33;;
60306;SDS011;46155;52.364;6.580;2023-01-05T09:23:30;20.97;;;10.27;;
60306;SDS011;46155;52.364;6.580;2023-01-05T09:25:56;16.20;;;10.10;;
60306;SDS011;46155;52.364;6.580;2023-01-05T09:28:21;25.20;;;10.63;;
60306;SDS011;46155;52.364;6.580;2023-01-05T09:30:47;15.13;;;10.87;;
60306;SDS011;46155;52.364;6.580;2023-01-05T09:33:12;21.40;;;11.10;;
60306;SDS011;46155;52.364;6.580;2023-01-05T09:35:37;24.17;;;11.27;;
60306;SDS011;46155;52.364;6.580;2023-01-05T09:38:02;25.03;;;11.60;;
60306;SDS011;46155;52.364;6.580;2023-01-05T09:40:28;21.57;;;12.67;;
60306;SDS011;46155;52.364;6.580;2023-01-05T09:42:59;20.73;;;10.83;;
60306;SDS011;46155;52.364;6.580;2023-01-05T09:45:25;27.00;;;10.13;;
60306;SDS011;46155;52.364;6.580;2023-01-05T09:47:51;19.10;;;11.07;;
60306;SDS011;46155;52.364;6.580;2023-01-05T09:50:20;21.20;;;11.27;;
60306;SDS011;46155;52.364;6.580;2023-01-05T09:52:48;20.30;;;10.73;;
60306;SDS011;46155;52.364;6.580;2023-01-05T09:55:16;27.83;;;10.23;;
60306;SDS011;46155;52.364;6.580;2023-01-05T09:57:48;20.90;;;10.90;;
60306;SDS011;46155;52.364;6.580;2023-01-05T10:00:18;20.23;;;10.50;;
60306;SDS011;46155;52.364;6.580;2023-01-05T10:02:48;22.97;;;10.30;;
60306;SDS011;46155;52.364;6.580;2023-01-05T10:05:16;26.33;;;10.47;;
60306;SDS011;46155;52.364;6.580;2023-01-05T10:11:01;29.17;;;10.43;;
60306;SDS011;46155;52.364;6.580;2023-01-05T10:16:18;18.90;;;10.00;;
60306;SDS011;46155;52.364;6.580;2023-01-05T10:18:44;17.90;;;10.30;;
60306;SDS011;46155;52.364;6.580;2023-01-05T10:24:18;15.60;;;10.40;;
60306;SDS011;46155;52.364;6.580;2023-01-05T10:26:53;15.30;;;10.07;;
60306;SDS011;46155;52.364;6.580;2023-01-05T10:29:46;20.17;;;11.27;;
60306;SDS011;46155;52.364;6.580;2023-01-05T10:35:34;29.00;;;10.63;;
60306;SDS011;46155;52.364;6.580;2023-01-05T10:41:07;33.73;;;11.70;;
60306;SDS011;46155;52.364;6.580;2023-01-05T10:46:21;21.50;;;10.40;;
60306;SDS011;46155;52.364;6.580;2023-01-05T10:48:46;35.00;;;11.13;;
60306;SDS011;46155;52.364;6.580;2023-01-05T10:51:12;16.07;;;10.93;;
60306;SDS011;46155;52.364;6.580;2023-01-05T10:53:38;23.33;;;10.47;;
60306;SDS011;46155;52.364;6.580;2023-01-05T10:56:09;16.47;;;11.73;;
60306;SDS011;46155;52.364;6.580;2023-01-05T10:58:42;21.50;;;10.73;;
60306;SDS011;46155;52.364;6.580;2023-01-05T11:01:20;14.33;;;10.07;;
60306;SDS011;46155;52.364;6.580;2023-01-05T11:04:11;19.07;;;9.83;;
60306;SDS011;46155;52.364;6.580;2023-01-05T11:06:39;16.10;;;9.83;;
60306;SDS011;46155;52.364;6.580;2023-01-05T11:12:02;22.50;;;9.37;;
60306;SDS011;46155;52.364;6.580;2023-01-05T11:14:31;21.13;;;10.27;;
60306;SDS011;46155;52.364;6.580;2023-01-05T11:17:04;18.93;;;9.87;;
60306;SDS011;46155;52.364;6.580;2023-01-05T11:19:33;14.43;;;8.77;;
60306;SDS011;46155;52.364;6.580;2023-01-05T11:22:01;20.27;;;9.37;;
60306;SDS011;46155;52.364;6.580;2023-01-05T11:24:27;20.07;;;9.50;;
60306;SDS011;46155;52.364;6.580;2023-01-05T11:27:00;27.13;;;10.37;;
60306;SDS011;46155;52.364;6.580;2023-01-05T11:29:27;22.70;;;10.17;;
60306;SDS011;46155;52.364;6.580;2023-01-05T11:31:55;16.93;;;9.80;;
60306;SDS011;46155;52.364;6.580;2023-01-05T11:37:02;14.63;;;10.40;;
60306;SDS011;46155;52.364;6.580;2023-01-05T11:39:48;14.13;;;10.60;;
60306;SDS011;46155;52.364;6.580;2023-01-05T11:42:33;14.33;;;9.90;;
60306;SDS011;46155;52.364;6.580;2023-01-05T11:45:13;34.53;;;11.03;;
60306;SDS011;46155;52.364;6.580;2023-01-05T11:47:55;22.03;;;11.87;;
60306;SDS011;46155;52.364;6.580;2023-01-05T11:50:30;17.33;;;10.43;;
60306;SDS011;46155;52.364;6.580;2023-01-05T11:53:02;27.87;;;11.63;;
60306;SDS011;46155;52.364;6.580;2023-01-05T11:55:32;19.33;;;9.97;;
60306;SDS011;46155;52.364;6.580;2023-01-05T12:06:03;25.70;;;10.17;;
60306;SDS011;46155;52.364;6.580;2023-01-05T12:08:46;22.10;;;9.40;;
60306;SDS011;46155;52.364;6.580;2023-01-05T12:11:20;20.83;;;9.50;;
60306;SDS011;46155;52.364;6.580;2023-01-05T12:13:59;22.33;;;10.37;;
60306;SDS011;46155;52.364;6.580;2023-01-05T12:16:46;20.73;;;9.50;;
60306;SDS011;46155;52.364;6.580;2023-01-05T12:30:29;27.00;;;9.73;;
60306;SDS011;46155;52.364;6.580;2023-01-05T12:36:01;21.33;;;10.30;;
60306;SDS011;46155;52.364;6.580;2023-01-05T12:41:41;19.73;;;10.13;;
60306;SDS011;46155;52.364;6.580;2023-01-05T12:49:23;30.50;;;10.17;;
60306;SDS011;46155;52.364;6.580;2023-01-05T12:51:56;28.00;;;11.33;;
60306;SDS011;46155;52.364;6.580;2023-01-05T12:54:39;31.77;;;9.57;;
60306;SDS011;46155;52.364;6.580;2023-01-05T12:57:14;10.47;;;9.43;;
60306;SDS011;46155;52.364;6.580;2023-01-05T13:04:56;18.97;;;10.00;;
60306;SDS011;46155;52.364;6.580;2023-01-05T13:07:32;23.53;;;10.50;;
60306;SDS011;46155;52.364;6.580;2023-01-05T13:10:05;23.53;;;11.37;;
60306;SDS011;46155;52.364;6.580;2023-01-05T13:12:41;18.83;;;10.90;;
60306;SDS011;46155;52.364;6.580;2023-01-05T13:17:35;26.33;;;11.00;;
60306;SDS011;46155;52.364;6.580;2023-01-05T13:23:03;28.30;;;10.93;;
60306;SDS011;46155;52.364;6.580;2023-01-05T13:25:39;22.30;;;11.40;;
60306;SDS011;46155;52.364;6.580;2023-01-05T13:28:20;20.20;;;10.30;;
60306;SDS011;46155;52.364;6.580;2023-01-05T13:31:36;23.33;;;9.30;;
60306;SDS011;46155;52.364;6.580;2023-01-05T13:36:42;24.87;;;10.10;;
60306;SDS011;46155;52.364;6.580;2023-01-05T13:50:52;13.60;;;9.03;;
60306;SDS011;46155;52.364;6.580;2023-01-05T13:53:43;22.93;;;9.90;;
60306;SDS011;46155;52.364;6.580;2023-01-05T13:56:18;20.07;;;9.90;;
60306;SDS011;46155;52.364;6.580;2023-01-05T13:58:48;15.07;;;11.17;;
60306;SDS011;46155;52.364;6.580;2023-01-05T14:01:31;20.13;;;9.90;;
60306;SDS011;46155;52.364;6.580;2023-01-05T14:04:14;14.57;;;10.57;;
60306;SDS011;46155;52.364;6.580;2023-01-05T14:06:52;25.90;;;9.93;;
60306;SDS011;46155;52.364;6.580;2023-01-05T14:09:25;15.37;;;9.83;;
60306;SDS011;46155;52.364;6.580;2023-01-05T14:28:20;26.57;;;11.37;;
60306;SDS011;46155;52.364;6.580;2023-01-05T14:30:52;20.90;;;9.77;;
60306;SDS011;46155;52.364;6.580;2023-01-05T14:38:54;22.80;;;10.43;;
60306;SDS011;46155;52.364;6.580;2023-01-05T14:41:21;21.20;;;11.80;;
60306;SDS011;46155;52.364;6.580;2023-01-05T14:46:52;23.17;;;11.33;;
60306;SDS011;46155;52.364;6.580;2023-01-05T14:49:21;27.97;;;10.17;;
60306;SDS011;46155;52.364;6.580;2023-01-05T14:51:53;18.00;;;9.97;;
60306;SDS011;46155;52.364;6.580;2023-01-05T14:54:37;22.33;;;10.90;;
60306;SDS011;46155;52.364;6.580;2023-01-05T14:59:49;26.80;;;10.17;;
60306;SDS011;46155;52.364;6.580;2023-01-05T15:02:25;13.50;;;9.43;;
60306;SDS011;46155;52.364;6.580;2023-01-05T15:04:53;29.60;;;10.40;;
60306;SDS011;46155;52.364;6.580;2023-01-05T15:07:32;20.53;;;9.67;;
60306;SDS011;46155;52.364;6.580;2023-01-05T15:13:32;16.97;;;9.27;;
60306;SDS011;46155;52.364;6.580;2023-01-05T15:18:31;30.50;;;10.87;;
60306;SDS011;46155;52.364;6.580;2023-01-05T15:29:52;18.43;;;11.73;;
60306;SDS011;46155;52.364;6.580;2023-01-05T15:32:33;16.70;;;11.23;;
60306;SDS011;46155;52.364;6.580;2023-01-05T15:35:17;20.53;;;12.50;;
60306;SDS011;46155;52.364;6.580;2023-01-05T15:37:45;25.90;;;13.87;;
60306;SDS011;46155;52.364;6.580;2023-01-05T15:42:48;20.83;;;12.83;;
60306;SDS011;46155;52.364;6.580;2023-01-05T15:48:05;23.57;;;13.00;;
60306;SDS011;46155;52.364;6.580;2023-01-05T15:53:04;18.70;;;12.73;;
60306;SDS011;46155;52.364;6.580;2023-01-05T15:55:30;25.17;;;11.87;;
60306;SDS011;46155;52.364;6.580;2023-01-05T15:57:59;23.77;;;11.93;;
60306;SDS011;46155;52.364;6.580;2023-01-05T16:00:31;27.90;;;12.97;;
60306;SDS011;46155;52.364;6.580;2023-01-05T16:02:58;23.33;;;12.87;;
60306;SDS011;46155;52.364;6.580;2023-01-05T16:05:25;22.27;;;12.73;;
60306;SDS011;46155;52.364;6.580;2023-01-05T16:07:57;32.43;;;13.80;;
60306;SDS011;46155;52.364;6.580;2023-01-05T16:10:27;32.20;;;12.63;;
60306;SDS011;46155;52.364;6.580;2023-01-05T16:13:02;20.50;;;12.77;;
60306;SDS011;46155;52.364;6.580;2023-01-05T16:15:32;30.27;;;15.87;;
60306;SDS011;46155;52.364;6.580;2023-01-05T16:17:59;28.83;;;14.57;;
60306;SDS011;46155;52.364;6.580;2023-01-05T16:20:27;28.40;;;14.03;;
60306;SDS011;46155;52.364;6.580;2023-01-05T16:25:25;34.57;;;15.43;;
60306;SDS011;46155;52.364;6.580;2023-01-05T16:27:54;37.10;;;13.80;;
60306;SDS011;46155;52.364;6.580;2023-01-05T16:33:02;22.50;;;15.73;;
60306;SDS011;46155;52.364;6.580;2023-01-05T16:35:42;27.80;;;14.47;;
60306;SDS011;46155;52.364;6.580;2023-01-05T16:40:54;32.70;;;14.60;;
60306;SDS011;46155;52.364;6.580;2023-01-05T16:43:41;21.87;;;15.07;;
60306;SDS011;46155;52.364;6.580;2023-01-05T16:51:05;35.73;;;19.77;;
60306;SDS011;46155;52.364;6.580;2023-01-05T16:53:45;32.00;;;19.33;;
60306;SDS011;46155;52.364;6.580;2023-01-05T16:56:19;28.73;;;16.97;;
60306;SDS011;46155;52.364;6.580;2023-01-05T16:58:47;28.53;;;16.33;;
60306;SDS011;46155;52.364;6.580;2023-01-05T17:01:14;30.97;;;15.67;;
60306;SDS011;46155;52.364;6.580;2023-01-05T17:03:40;35.57;;;16.60;;
60306;SDS011;46155;52.364;6.580;2023-01-05T17:06:12;25.30;;;15.90;;
60306;SDS011;46155;52.364;6.580;2023-01-05T17:08:46;30.93;;;16.10;;
60306;SDS011;46155;52.364;6.580;2023-01-05T17:11:11;29.97;;;14.60;;
60306;SDS011;46155;52.364;6.580;2023-01-05T17:13:41;28.33;;;16.17;;
60306;SDS011;46155;52.364;6.580;2023-01-05T17:16:11;29.33;;;15.50;;
60306;SDS011;46155;52.364;6.580;2023-01-05T17:18:37;33.90;;;16.60;;
60306;SDS011;46155;52.364;6.580;2023-01-05T17:21:03;27.90;;;19.23;;
60306;SDS011;46155;52.364;6.580;2023-01-05T17:26:10;35.40;;;18.30;;
60306;SDS011;46155;52.364;6.580;2023-01-05T17:28:37;22.47;;;18.30;;
60306;SDS011;46155;52.364;6.580;2023-01-05T17:31:02;25.77;;;18.73;;
60306;SDS011;46155;52.364;6.580;2023-01-05T17:33:28;36.97;;;19.73;;
60306;SDS011;46155;52.364;6.580;2023-01-05T17:35:54;28.80;;;20.50;;
60306;SDS011;46155;52.364;6.580;2023-01-05T17:38:20;47.03;;;26.30;;
60306;SDS011;46155;52.364;6.580;2023-01-05T17:40:45;32.93;;;24.27;;
60306;SDS011;46155;52.364;6.580;2023-01-05T17:43:10;45.67;;;26.57;;
60306;SDS011;46155;52.364;6.580;2023-01-05T17:45:37;51.03;;;26.73;;
60306;SDS011;46155;52.364;6.580;2023-01-05T17:48:05;32.73;;;25.27;;
60306;SDS011;46155;52.364;6.580;2023-01-05T17:50:31;35.80;;;23.37;;
60306;SDS011;46155;52.364;6.580;2023-01-05T17:52:57;40.13;;;26.13;;
60306;SDS011;46155;52.364;6.580;2023-01-05T17:55:23;46.50;;;26.83;;
60306;SDS011;46155;52.364;6.580;2023-01-05T17:57:49;49.03;;;30.50;;
60306;SDS011;46155;52.364;6.580;2023-01-05T18:00:16;50.87;;;31.33;;
60306;SDS011;46155;52.364;6.580;2023-01-05T18:02:43;56.83;;;38.63;;
60306;SDS011;46155;52.364;6.580;2023-01-05T18:05:09;42.73;;;32.47;;
60306;SDS011;46155;52.364;6.580;2023-01-05T18:07:35;42.03;;;27.93;;
60306;SDS011;46155;52.364;6.580;2023-01-05T18:10:02;33.23;;;26.43;;
60306;SDS011;46155;52.364;6.580;2023-01-05T18:12:28;47.67;;;30.77;;
60306;SDS011;46155;52.364;6.580;2023-01-05T18:14:54;36.97;;;29.40;;
60306;SDS011;46155;52.364;6.580;2023-01-05T18:17:19;37.23;;;28.57;;
60306;SDS011;46155;52.364;6.580;2023-01-05T18:19:45;61.70;;;30.93;;
60306;SDS011;46155;52.364;6.580;2023-01-05T18:22:10;44.80;;;29.23;;
60306;SDS011;46155;52.364;6.580;2023-01-05T18:24:37;39.27;;;31.13;;
60306;SDS011;46155;52.364;6.580;2023-01-05T18:27:03;45.70;;;28.83;;
60306;SDS011;46155;52.364;6.580;2023-01-05T18:29:31;38.97;;;28.43;;
60306;SDS011;46155;52.364;6.580;2023-01-05T18:31:57;39.13;;;28.80;;
60306;SDS011;46155;52.364;6.580;2023-01-05T18:34:22;57.10;;;29.27;;
60306;SDS011;46155;52.364;6.580;2023-01-05T18:36:48;43.27;;;30.10;;
60306;SDS011;46155;52.364;6.580;2023-01-05T18:39:13;38.20;;;30.17;;
60306;SDS011;46155;52.364;6.580;2023-01-05T18:41:38;40.37;;;28.00;;
60306;SDS011;46155;52.364;6.580;2023-01-05T18:44:04;40.13;;;29.83;;
60306;SDS011;46155;52.364;6.580;2023-01-05T18:46:29;57.53;;;28.50;;
60306;SDS011;46155;52.364;6.580;2023-01-05T18:48:54;35.00;;;30.53;;
60306;SDS011;46155;52.364;6.580;2023-01-05T18:51:20;56.30;;;32.43;;
60306;SDS011;46155;52.364;6.580;2023-01-05T18:53:45;41.87;;;30.30;;
60306;SDS011;46155;52.364;6.580;2023-01-05T18:56:11;52.77;;;32.30;;
60306;SDS011;46155;52.364;6.580;2023-01-05T18:58:37;53.53;;;31.33;;
60306;SDS011;46155;52.364;6.580;2023-01-05T19:01:07;40.97;;;30.63;;
60306;SDS011;46155;52.364;6.580;2023-01-05T19:03:37;43.40;;;32.27;;
60306;SDS011;46155;52.364;6.580;2023-01-05T19:06:03;41.07;;;31.37;;
60306;SDS011;46155;52.364;6.580;2023-01-05T19:08:39;38.40;;;33.27;;
60306;SDS011;46155;52.364;6.580;2023-01-05T19:11:09;62.90;;;34.87;;
60306;SDS011;46155;52.364;6.580;2023-01-05T19:13:37;49.47;;;33.43;;
60306;SDS011;46155;52.364;6.580;2023-01-05T19:16:04;45.57;;;32.97;;
60306;SDS011;46155;52.364;6.580;2023-01-05T19:18:29;55.20;;;34.10;;
60306;SDS011;46155;52.364;6.580;2023-01-05T19:20:55;49.67;;;34.40;;
60306;SDS011;46155;52.364;6.580;2023-01-05T19:23:21;53.10;;;34.63;;
60306;SDS011;46155;52.364;6.580;2023-01-05T19:25:47;57.33;;;36.13;;
60306;SDS011;46155;52.364;6.580;2023-01-05T19:28:12;55.30;;;34.87;;
60306;SDS011;46155;52.364;6.580;2023-01-05T19:30:37;46.03;;;34.37;;
60306;SDS011;46155;52.364;6.580;2023-01-05T19:33:03;42.90;;;34.47;;
60306;SDS011;46155;52.364;6.580;2023-01-05T19:35:28;40.03;;;33.37;;
60306;SDS011;46155;52.364;6.580;2023-01-05T19:37:55;34.43;;;31.07;;
60306;SDS011;46155;52.364;6.580;2023-01-05T19:40:21;58.07;;;35.67;;
60306;SDS011;46155;52.364;6.580;2023-01-05T19:42:46;52.00;;;34.73;;
60306;SDS011;46155;52.364;6.580;2023-01-05T19:45:11;56.97;;;35.43;;
60306;SDS011;46155;52.364;6.580;2023-01-05T19:47:37;39.53;;;34.07;;
60306;SDS011;46155;52.364;6.580;2023-01-05T19:50:05;39.97;;;34.87;;
60306;SDS011;46155;52.364;6.580;2023-01-05T19:52:31;52.10;;;37.47;;
60306;SDS011;46155;52.364;6.580;2023-01-05T19:54:56;47.47;;;35.33;;
60306;SDS011;46155;52.364;6.580;2023-01-05T19:57:22;59.73;;;40.33;;
60306;SDS011;46155;52.364;6.580;2023-01-05T19:59:47;43.70;;;37.77;;
60306;SDS011;46155;52.364;6.580;2023-01-05T20:02:13;54.13;;;37.83;;
60306;SDS011;46155;52.364;6.580;2023-01-05T20:04:38;42.20;;;37.77;;
60306;SDS011;46155;52.364;6.580;2023-01-05T20:07:03;48.90;;;35.43;;
60306;SDS011;46155;52.364;6.580;2023-01-05T20:09:32;49.07;;;34.37;;
60306;SDS011;46155;52.364;6.580;2023-01-05T20:11:57;42.33;;;36.10;;
60306;SDS011;46155;52.364;6.580;2023-01-05T20:14:23;53.40;;;35.80;;
60306;SDS011;46155;52.364;6.580;2023-01-05T20:16:53;41.30;;;35.20;;
60306;SDS011;46155;52.364;6.580;2023-01-05T20:19:20;42.50;;;34.60;;
60306;SDS011;46155;52.364;6.580;2023-01-05T20:21:47;43.33;;;38.53;;
60306;SDS011;46155;52.364;6.580;2023-01-05T20:24:16;41.20;;;36.83;;
60306;SDS011;46155;52.364;6.580;2023-01-05T20:26:43;40.17;;;36.00;;
60306;SDS011;46155;52.364;6.580;2023-01-05T20:29:10;46.97;;;37.17;;
60306;SDS011;46155;52.364;6.580;2023-01-05T20:31:41;43.47;;;36.40;;
60306;SDS011;46155;52.364;6.580;2023-01-05T20:34:12;41.73;;;34.40;;
60306;SDS011;46155;52.364;6.580;2023-01-05T20:36:40;43.10;;;36.10;;
60306;SDS011;46155;52.364;6.580;2023-01-05T20:39:07;43.03;;;38.67;;
60306;SDS011;46155;52.364;6.580;2023-01-05T20:41:35;44.03;;;36.70;;
60306;SDS011;46155;52.364;6.580;2023-01-05T20:44:02;42.23;;;37.90;;
60306;SDS011;46155;52.364;6.580;2023-01-05T20:46:33;45.40;;;38.77;;
60306;SDS011;46155;52.364;6.580;2023-01-05T20:49:01;43.67;;;39.13;;
60306;SDS011;46155;52.364;6.580;2023-01-05T20:51:26;43.77;;;39.50;;
60306;SDS011;46155;52.364;6.580;2023-01-05T20:53:53;44.97;;;40.40;;
60306;SDS011;46155;52.364;6.580;2023-01-05T20:56:21;50.90;;;43.60;;
60306;SDS011;46155;52.364;6.580;2023-01-05T20:58:49;46.37;;;41.67;;